createdAt,value
2018-03-07T00:00:10.587Z,95.20
2018-03-07T00:00:44.103Z,90.40
2018-03-07T00:01:17.778Z,93.68
2018-03-07T00:01:51.470Z,91.57
2018-03-07T00:02:25.166Z,91.05
2018-03-07T00:02:58.851Z,97.20
2018-03-07T00:03:32.564Z,91.85
2018-03-07T00:04:06.250Z,93.20
2018-03-07T00:04:39.939Z,89.93
2018-03-07T00:05:13.631Z,90.12
2018-03-07T00:05:47.309Z,92.43
2018-03-07T00:06:20.994Z,95.00
2018-03-07T00:06:54.677Z,92.95
2018-03-07T00:07:28.366Z,92.45
2018-03-07T00:08:02.034Z,95.18
2018-03-07T00:08:35.732Z,92.53
2018-03-07T00:09:09.414Z,90.78
2018-03-07T00:09:43.850Z,92.78
2018-03-07T00:10:17.534Z,93.25
2018-03-07T00:10:51.197Z,92.35
2018-03-07T00:11:24.888Z,91.55
2018-03-07T00:11:58.579Z,94.32
2018-03-07T00:12:33.020Z,90.57
2018-03-07T00:13:06.696Z,93.93
2018-03-07T00:13:40.775Z,90.62
2018-03-07T00:14:15.223Z,95.07
2018-03-07T00:14:48.981Z,92.57
2018-03-07T00:15:22.811Z,93.15
2018-03-07T00:15:56.497Z,90.65
2018-03-07T00:16:30.171Z,91.35
2018-03-07T00:17:03.856Z,93.05
2018-03-07T00:17:37.530Z,95.03
2018-03-07T00:18:11.227Z,92.50
2018-03-07T00:18:44.960Z,89.80
2018-03-07T00:19:18.633Z,90.60
2018-03-07T00:19:52.310Z,89.97
2018-03-07T00:20:25.995Z,92.68
2018-03-07T00:20:59.666Z,97.43
2018-03-07T00:21:33.354Z,92.00
2018-03-07T00:22:07.450Z,91.00
2018-03-07T00:22:41.241Z,92.45
2018-03-07T00:23:15.691Z,95.43
2018-03-07T00:23:49.437Z,93.12
2018-03-07T00:24:23.903Z,95.60
2018-03-07T00:24:57.590Z,92.65
2018-03-07T00:25:31.271Z,92.03
2018-03-07T00:26:04.960Z,93.62
2018-03-07T00:26:38.640Z,92.75
2018-03-07T00:27:12.302Z,94.00
2018-03-07T00:27:46.735Z,93.82
2018-03-07T00:28:20.402Z,93.10
2018-03-07T00:28:54.861Z,92.95
2018-03-07T00:29:28.540Z,91.50
2018-03-07T00:30:02.223Z,93.87
2018-03-07T00:30:35.911Z,91.50
2018-03-07T00:31:09.626Z,93.10
2018-03-07T00:31:43.301Z,91.28
2018-03-07T00:32:17.028Z,92.35
2018-03-07T00:32:50.690Z,95.07
2018-03-07T00:33:24.369Z,95.95
2018-03-07T00:33:58.074Z,93.03
2018-03-07T00:34:31.759Z,94.28
2018-03-07T00:35:05.439Z,94.80
2018-03-07T00:35:39.299Z,93.22
2018-03-07T00:36:13.005Z,92.00
2018-03-07T00:36:46.677Z,93.93
2018-03-07T00:37:20.043Z,90.40
2018-03-07T00:37:54.478Z,93.90
2018-03-07T00:38:28.159Z,91.75
2018-03-07T00:39:01.857Z,95.55
2018-03-07T00:39:35.541Z,92.65
2018-03-07T00:40:09.230Z,93.15
2018-03-07T00:40:42.899Z,91.78
2018-03-07T00:41:17.154Z,91.70
2018-03-07T00:41:50.847Z,91.78
2018-03-07T00:42:24.536Z,91.57
2018-03-07T00:42:58.218Z,93.90
2018-03-07T00:43:31.892Z,90.90
2018-03-07T00:44:05.609Z,93.03
2018-03-07T00:44:39.297Z,96.12
2018-03-07T00:45:12.976Z,94.90
2018-03-07T00:45:46.666Z,90.57
2018-03-07T00:46:20.345Z,94.32
2018-03-07T00:46:54.027Z,95.78
2018-03-07T00:47:27.700Z,93.57
2018-03-07T00:48:01.374Z,95.65
2018-03-07T00:48:35.044Z,93.50
2018-03-07T00:49:08.742Z,94.00
2018-03-07T00:49:42.428Z,93.22
2018-03-07T00:50:16.098Z,95.40
2018-03-07T00:50:49.772Z,96.95
2018-03-07T00:51:23.444Z,92.00
2018-03-07T00:51:57.108Z,93.78
2018-03-07T00:52:31.561Z,90.57
2018-03-07T00:53:04.929Z,93.55
2018-03-07T00:53:38.605Z,91.95
2018-03-07T00:54:12.295Z,93.85
2018-03-07T00:54:45.979Z,94.40
2018-03-07T00:55:20.429Z,91.43
2018-03-07T00:55:54.119Z,93.05
2018-03-07T00:56:27.799Z,90.28
2018-03-07T00:57:01.485Z,94.75
2018-03-07T00:57:35.156Z,95.25
2018-03-07T00:58:08.829Z,93.60
2018-03-07T00:58:43.274Z,93.90
2018-03-07T00:59:16.961Z,94.18
2018-03-07T00:59:50.655Z,97.32
2018-03-07T01:00:24.337Z,96.85
2018-03-07T01:00:58.038Z,92.00
2018-03-07T01:01:31.729Z,93.50
2018-03-07T01:02:05.410Z,94.55
2018-03-07T01:02:39.069Z,93.28
2018-03-07T01:03:13.503Z,91.93
2018-03-07T01:03:47.168Z,91.50
2018-03-07T01:04:21.625Z,91.85
2018-03-07T01:04:55.310Z,93.05
2018-03-07T01:05:28.987Z,92.20
2018-03-07T01:06:02.673Z,92.88
2018-03-07T01:06:36.360Z,91.43
2018-03-07T01:07:10.035Z,94.35
2018-03-07T01:07:43.710Z,93.00
2018-03-07T01:08:18.150Z,93.47
2018-03-07T01:08:51.822Z,91.72
2018-03-07T01:09:25.534Z,93.65
2018-03-07T01:09:59.215Z,96.15
2018-03-07T01:10:32.887Z,93.68
2018-03-07T01:11:06.571Z,91.45
2018-03-07T01:11:40.285Z,91.45
2018-03-07T01:12:13.958Z,95.20
2018-03-07T01:12:47.299Z,91.70
2018-03-07T01:13:20.968Z,93.05
2018-03-07T01:13:54.647Z,91.40
2018-03-07T01:14:28.336Z,90.95
2018-03-07T01:15:02.024Z,91.95
2018-03-07T01:15:35.711Z,96.47
2018-03-07T01:16:09.372Z,91.22
2018-03-07T01:16:43.044Z,93.57
2018-03-07T01:17:16.706Z,93.18
2018-03-07T01:17:50.393Z,88.97
2018-03-07T01:18:24.065Z,95.60
2018-03-07T01:18:57.734Z,91.80
2018-03-07T01:19:31.442Z,92.65
2018-03-07T01:20:05.112Z,88.65
2018-03-07T01:20:38.801Z,91.75
2018-03-07T01:21:12.477Z,92.88
2018-03-07T01:21:46.166Z,92.57
2018-03-07T01:22:20.617Z,91.25
2018-03-07T01:22:54.295Z,89.93
2018-03-07T01:23:27.971Z,90.85
2018-03-07T01:24:01.659Z,94.53
2018-03-07T01:24:35.365Z,91.28
2018-03-07T01:25:09.025Z,88.00
2018-03-07T01:25:43.462Z,89.68
2018-03-07T01:26:17.122Z,89.10
2018-03-07T01:26:50.811Z,91.07
2018-03-07T01:27:24.498Z,91.90
2018-03-07T01:27:58.942Z,91.20
2018-03-07T01:28:32.655Z,89.93
2018-03-07T01:29:06.344Z,88.68
2018-03-07T01:29:40.395Z,89.18
2018-03-07T01:30:14.074Z,89.57
2018-03-07T01:30:47.838Z,87.90
2018-03-07T01:31:21.514Z,90.40
2018-03-07T01:31:55.195Z,89.60
2018-03-07T01:32:28.865Z,88.55
2018-03-07T01:33:02.538Z,89.95
2018-03-07T01:33:36.222Z,92.37
2018-03-07T01:34:09.905Z,89.47
2018-03-07T01:34:43.909Z,90.97
2018-03-07T01:35:17.587Z,92.32
2018-03-07T01:35:52.031Z,90.03
2018-03-07T01:36:25.703Z,90.35
2018-03-07T01:36:59.385Z,90.68
2018-03-07T01:37:33.074Z,92.35
2018-03-07T01:38:06.764Z,89.10
2018-03-07T01:38:40.453Z,88.18
2018-03-07T01:39:14.162Z,90.53
2018-03-07T01:39:48.183Z,90.50
2018-03-07T01:40:21.875Z,89.28
2018-03-07T01:40:55.362Z,91.80
2018-03-07T01:41:29.032Z,95.72
2018-03-07T01:42:02.722Z,94.00
2018-03-07T01:42:36.390Z,88.20
2018-03-07T01:43:10.072Z,89.00
2018-03-07T01:43:43.761Z,93.47
2018-03-07T01:44:17.436Z,90.60
2018-03-07T01:44:51.911Z,87.90
2018-03-07T01:45:25.594Z,91.18
2018-03-07T01:45:59.282Z,90.97
2018-03-07T01:46:32.971Z,88.28
2018-03-07T01:47:06.644Z,91.75
2018-03-07T01:47:40.330Z,87.97
2018-03-07T01:48:14.044Z,91.63
2018-03-07T01:48:47.750Z,91.22
2018-03-07T01:49:21.424Z,89.70
2018-03-07T01:49:55.135Z,87.85
2018-03-07T01:50:28.807Z,88.82
2018-03-07T01:51:02.490Z,89.90
2018-03-07T01:51:47.447Z,89.87
2018-03-07T01:52:21.154Z,89.72
2018-03-07T01:52:54.842Z,89.82
2018-03-07T01:53:28.559Z,89.05
2018-03-07T01:54:03.024Z,89.60
2018-03-07T01:54:36.526Z,90.07
2018-03-07T01:55:10.242Z,87.90
2018-03-07T01:55:44.696Z,90.10
2018-03-07T01:56:18.375Z,92.18
2018-03-07T01:56:52.357Z,89.13
2018-03-07T01:57:26.046Z,89.40
2018-03-07T01:57:59.723Z,90.95
2018-03-07T01:58:34.177Z,89.35
2018-03-07T01:59:07.874Z,90.00
2018-03-07T01:59:41.560Z,88.85
2018-03-07T02:00:15.256Z,87.80
2018-03-07T02:00:48.939Z,90.57
2018-03-07T02:01:22.630Z,91.97
2018-03-07T02:01:56.324Z,90.47
2018-03-07T02:02:29.701Z,92.85
2018-03-07T02:03:03.390Z,90.50
2018-03-07T02:03:37.080Z,87.90
2018-03-07T02:04:10.769Z,89.93
2018-03-07T02:04:44.458Z,91.30
2018-03-07T02:05:18.160Z,88.97
2018-03-07T02:05:51.840Z,87.88
2018-03-07T02:06:25.528Z,93.60
2018-03-07T02:06:59.216Z,92.75
2018-03-07T02:07:32.909Z,89.78
2018-03-07T02:08:06.297Z,92.00
2018-03-07T02:08:40.134Z,89.95
2018-03-07T02:09:14.590Z,90.30
2018-03-07T02:09:48.281Z,89.45
2018-03-07T02:10:21.985Z,89.32
2018-03-07T02:10:55.664Z,91.22
2018-03-07T02:11:29.348Z,90.10
2018-03-07T02:12:03.039Z,87.97
2018-03-07T02:12:36.705Z,90.53
2018-03-07T02:13:10.385Z,87.68
2018-03-07T02:13:44.058Z,90.30
2018-03-07T02:14:18.518Z,91.90
2018-03-07T02:14:52.204Z,91.68
2018-03-07T02:15:25.911Z,91.03
2018-03-07T02:15:59.612Z,86.47
2018-03-07T02:16:33.291Z,93.30
2018-03-07T02:17:06.981Z,92.03
2018-03-07T02:17:40.666Z,91.05
2018-03-07T02:18:14.347Z,89.18
2018-03-07T02:18:48.038Z,90.62
2018-03-07T02:19:21.713Z,91.82
2018-03-07T02:19:55.389Z,88.40
2018-03-07T02:20:29.079Z,87.53
2018-03-07T02:21:02.773Z,91.32
2018-03-07T02:21:36.481Z,88.28
2018-03-07T02:22:10.166Z,93.95
2018-03-07T02:22:43.507Z,89.03
2018-03-07T02:23:17.960Z,87.60
2018-03-07T02:23:51.648Z,88.50
2018-03-07T02:24:25.317Z,94.15
2018-03-07T02:24:58.990Z,91.97
2018-03-07T02:25:33.463Z,90.87
2018-03-07T02:26:07.185Z,91.47
2018-03-07T02:26:41.623Z,92.80
2018-03-07T02:27:15.310Z,89.57
2018-03-07T02:27:48.992Z,89.75
2018-03-07T02:28:22.667Z,87.95
2018-03-07T02:28:56.348Z,90.82
2018-03-07T02:29:30.799Z,91.50
2018-03-07T02:30:04.478Z,88.43
2018-03-07T02:30:38.191Z,88.82
2018-03-07T02:31:11.875Z,89.65
2018-03-07T02:31:45.582Z,88.80
2018-03-07T02:32:19.268Z,90.68
2018-03-07T02:32:52.948Z,87.05
2018-03-07T02:33:26.619Z,92.07
2018-03-07T02:34:00.306Z,91.50
2018-03-07T02:34:33.994Z,87.88
2018-03-07T02:35:07.661Z,87.88
2018-03-07T02:35:42.129Z,89.37
2018-03-07T02:36:27.170Z,92.35
2018-03-07T02:37:00.855Z,89.85
2018-03-07T02:37:34.527Z,87.72
2018-03-07T02:38:08.214Z,89.40
2018-03-07T02:38:41.906Z,88.03
2018-03-07T02:39:15.598Z,89.15
2018-03-07T02:39:49.285Z,87.32
2018-03-07T02:40:22.979Z,90.20
2018-03-07T02:40:56.688Z,89.85
2018-03-07T02:41:30.367Z,89.07
2018-03-07T02:42:04.054Z,87.85
2018-03-07T02:42:37.735Z,89.70
2018-03-07T02:43:11.410Z,94.43
2018-03-07T02:43:45.093Z,90.22
2018-03-07T02:44:19.664Z,90.95
2018-03-07T02:44:53.350Z,89.37
2018-03-07T02:45:27.027Z,91.32
2018-03-07T02:46:00.749Z,92.62
2018-03-07T02:46:34.447Z,92.30
2018-03-07T02:47:08.914Z,91.45
2018-03-07T02:47:42.618Z,93.40
2018-03-07T02:48:16.299Z,93.43
2018-03-07T02:48:49.962Z,91.55
2018-03-07T02:49:23.652Z,94.72
2018-03-07T02:49:57.334Z,93.47
2018-03-07T02:50:31.018Z,95.00
2018-03-07T02:51:05.039Z,94.97
2018-03-07T02:51:38.735Z,97.05
2018-03-07T02:52:12.404Z,90.82
2018-03-07T02:52:46.082Z,91.47
2018-03-07T02:53:20.730Z,96.45
2018-03-07T02:53:54.410Z,90.18
2018-03-07T02:54:28.098Z,94.78
2018-03-07T02:55:01.786Z,93.55
2018-03-07T02:55:35.480Z,97.82
2018-03-07T02:56:09.186Z,93.00
2018-03-07T02:56:42.870Z,92.78
2018-03-07T02:57:16.535Z,95.00
2018-03-07T02:57:50.203Z,95.65
2018-03-07T02:58:24.648Z,94.18
2018-03-07T02:58:58.322Z,93.87
2018-03-07T02:59:32.010Z,94.28
2018-03-07T03:00:05.018Z,93.95
2018-03-07T03:00:38.703Z,93.75
2018-03-07T03:01:12.760Z,94.25
2018-03-07T03:01:47.221Z,94.40
2018-03-07T03:02:20.900Z,93.32
2018-03-07T03:02:54.594Z,97.43
2018-03-07T03:03:28.278Z,93.60
2018-03-07T03:04:01.939Z,92.75
2018-03-07T03:04:35.619Z,91.57
2018-03-07T03:05:09.299Z,97.20
2018-03-07T03:05:43.755Z,92.05
2018-03-07T03:06:17.821Z,91.30
2018-03-07T03:06:51.491Z,95.55
2018-03-07T03:07:25.922Z,93.15
2018-03-07T03:07:59.643Z,94.55
2018-03-07T03:08:33.331Z,95.00
2018-03-07T03:09:07.019Z,97.35
2018-03-07T03:09:40.723Z,95.12
2018-03-07T03:10:14.398Z,98.78
2018-03-07T03:10:47.749Z,95.43
2018-03-07T03:11:21.443Z,94.85
2018-03-07T03:11:55.108Z,94.37
2018-03-07T03:12:29.572Z,96.22
2018-03-07T03:13:03.258Z,99.05
2018-03-07T03:13:36.948Z,99.72
2018-03-07T03:14:10.823Z,95.55
2018-03-07T03:14:44.518Z,96.18
2018-03-07T03:15:18.190Z,97.25
2018-03-07T03:15:51.880Z,99.25
2018-03-07T03:16:25.263Z,95.10
2018-03-07T03:16:59.698Z,96.35
2018-03-07T03:17:33.411Z,96.10
2018-03-07T03:18:07.082Z,97.88
2018-03-07T03:18:40.762Z,96.95
2018-03-07T03:19:14.431Z,99.25
2018-03-07T03:19:48.106Z,96.05
2018-03-07T03:20:22.554Z,96.47
2018-03-07T03:20:56.244Z,97.22
2018-03-07T03:21:29.940Z,98.90
2018-03-07T03:22:03.989Z,93.22
2018-03-07T03:22:38.461Z,96.55
2018-03-07T03:23:12.130Z,94.53
2018-03-07T03:23:45.811Z,95.60
2018-03-07T03:24:19.481Z,98.75
2018-03-07T03:24:53.920Z,96.15
2018-03-07T03:25:27.606Z,95.43
2018-03-07T03:26:01.287Z,97.55
2018-03-07T03:26:35.359Z,97.55
2018-03-07T03:27:09.802Z,99.85
2018-03-07T03:27:43.491Z,100.80
2018-03-07T03:28:17.182Z,100.10
2018-03-07T03:28:50.872Z,102.18
2018-03-07T03:29:24.562Z,100.97
2018-03-07T03:29:58.254Z,98.93
2018-03-07T03:30:31.940Z,99.53
2018-03-07T03:31:05.314Z,100.25
2018-03-07T03:31:39.389Z,100.28
2018-03-07T03:32:13.175Z,100.57
2018-03-07T03:32:47.622Z,103.18
2018-03-07T03:33:21.315Z,102.10
2018-03-07T03:33:55.001Z,102.00
2018-03-07T03:34:28.690Z,101.32
2018-03-07T03:35:02.373Z,104.18
2018-03-07T03:35:36.051Z,101.68
2018-03-07T03:36:09.748Z,98.00
2018-03-07T03:36:43.711Z,102.62
2018-03-07T03:37:18.165Z,100.18
2018-03-07T03:37:52.022Z,95.60
2018-03-07T03:38:26.463Z,99.78
2018-03-07T03:39:00.155Z,99.20
2018-03-07T03:39:33.841Z,101.03
2018-03-07T03:40:07.532Z,97.15
2018-03-07T03:40:41.215Z,100.18
2018-03-07T03:41:14.915Z,98.28
2018-03-07T03:41:48.633Z,104.03
2018-03-07T03:42:23.073Z,99.72
2018-03-07T03:42:57.509Z,99.45
2018-03-07T03:43:31.196Z,98.80
2018-03-07T03:44:04.963Z,95.55
2018-03-07T03:44:39.065Z,97.85
2018-03-07T03:45:13.499Z,96.65
2018-03-07T03:45:47.214Z,99.05
2018-03-07T03:46:21.155Z,100.68
2018-03-07T03:46:55.969Z,99.90
2018-03-07T03:47:29.660Z,101.05
2018-03-07T03:48:04.106Z,99.80
2018-03-07T03:48:37.790Z,100.10
2018-03-07T03:49:11.473Z,99.93
2018-03-07T03:49:45.163Z,100.07
2018-03-07T03:50:18.850Z,100.25
2018-03-07T03:50:52.531Z,102.00
2018-03-07T03:51:26.974Z,102.97
2018-03-07T03:52:01.052Z,101.65
2018-03-07T03:52:34.742Z,102.10
2018-03-07T03:53:08.469Z,105.47
2018-03-07T03:53:45.371Z,103.38
2018-03-07T03:54:19.814Z,103.97
2018-03-07T03:54:53.157Z,100.57
2018-03-07T03:55:27.602Z,102.07
2018-03-07T03:56:01.291Z,106.53
2018-03-07T03:56:34.979Z,101.65
2018-03-07T03:57:09.054Z,102.45
2018-03-07T03:57:43.521Z,103.35
2018-03-07T03:58:17.212Z,104.93
2018-03-07T03:58:50.901Z,104.00
2018-03-07T03:59:24.585Z,105.47
2018-03-07T03:59:58.280Z,103.95
2018-03-07T04:00:31.966Z,103.40
2018-03-07T04:01:05.323Z,107.35
2018-03-07T04:01:39.005Z,106.47
2018-03-07T04:02:12.697Z,103.50
2018-03-07T04:02:46.375Z,104.65
2018-03-07T04:03:20.070Z,106.95
2018-03-07T04:03:53.738Z,107.28
2018-03-07T04:04:28.171Z,104.90
2018-03-07T04:05:01.880Z,105.50
2018-03-07T04:05:35.725Z,109.55
2018-03-07T04:06:10.177Z,111.12
2018-03-07T04:06:43.863Z,108.40
2018-03-07T04:07:17.571Z,110.70
2018-03-07T04:07:51.258Z,108.03
2018-03-07T04:08:24.933Z,107.05
2018-03-07T04:08:58.621Z,110.53
2018-03-07T04:09:32.291Z,111.65
2018-03-07T04:10:05.308Z,110.50
2018-03-07T04:10:38.999Z,114.43
2018-03-07T04:11:12.673Z,110.82
2018-03-07T04:11:46.341Z,111.78
2018-03-07T04:12:20.059Z,113.00
2018-03-07T04:12:53.747Z,114.95
2018-03-07T04:13:27.448Z,113.68
2018-03-07T04:14:01.130Z,113.47
2018-03-07T04:14:34.819Z,114.53
2018-03-07T04:15:08.510Z,115.00
2018-03-07T04:15:42.211Z,113.32
2018-03-07T04:16:15.889Z,118.03
2018-03-07T04:16:49.642Z,116.00
2018-03-07T04:17:23.355Z,117.50
2018-03-07T04:17:57.027Z,119.40
2018-03-07T04:18:30.711Z,115.45
2018-03-07T04:19:05.154Z,115.72
2018-03-07T04:19:38.830Z,113.90
2018-03-07T04:20:14.974Z,117.93
2018-03-07T04:20:48.862Z,118.03
2018-03-07T04:21:22.545Z,118.20
2018-03-07T04:21:56.234Z,116.57
2018-03-07T04:22:30.199Z,116.57
2018-03-07T04:23:04.682Z,118.03
2018-03-07T04:23:38.365Z,116.07
2018-03-07T04:24:12.253Z,123.28
2018-03-07T04:24:45.938Z,119.03
2018-03-07T04:25:19.634Z,117.57
2018-03-07T04:25:53.298Z,113.20
2018-03-07T04:26:26.973Z,122.07
2018-03-07T04:27:01.423Z,117.75
2018-03-07T04:27:35.135Z,116.37
2018-03-07T04:28:08.826Z,117.15
2018-03-07T04:28:42.522Z,117.85
2018-03-07T04:29:16.217Z,115.30
2018-03-07T04:29:49.930Z,117.90
2018-03-07T04:30:24.386Z,119.15
2018-03-07T04:30:58.071Z,124.47
2018-03-07T04:31:31.757Z,117.43
2018-03-07T04:32:05.450Z,119.40
2018-03-07T04:32:39.170Z,121.75
2018-03-07T04:33:12.952Z,118.78
2018-03-07T04:33:46.642Z,120.37
2018-03-07T04:34:20.342Z,117.10
2018-03-07T04:34:54.059Z,118.93
2018-03-07T04:35:28.510Z,117.28
2018-03-07T04:36:02.198Z,121.45
2018-03-07T04:36:35.887Z,120.68
2018-03-07T04:37:09.561Z,115.25
2018-03-07T04:37:43.278Z,118.55
2018-03-07T04:38:16.983Z,116.37
2018-03-07T04:38:50.677Z,122.00
2018-03-07T04:39:24.373Z,122.85
2018-03-07T04:39:58.066Z,120.72
2018-03-07T04:40:31.748Z,119.05
2018-03-07T04:41:05.432Z,118.47
2018-03-07T04:41:39.113Z,115.30
2018-03-07T04:42:12.799Z,121.35
2018-03-07T04:42:46.518Z,120.57
2018-03-07T04:43:20.202Z,117.50
2018-03-07T04:43:53.881Z,122.07
2018-03-07T04:44:27.545Z,120.85
2018-03-07T04:45:01.235Z,118.70
2018-03-07T04:45:34.926Z,120.90
2018-03-07T04:46:08.641Z,120.45
2018-03-07T04:46:42.330Z,123.78
2018-03-07T04:47:16.020Z,124.25
2018-03-07T04:47:49.718Z,118.07
2018-03-07T04:48:23.395Z,121.10
2018-03-07T04:48:57.080Z,120.80
2018-03-07T04:49:30.774Z,122.13
2018-03-07T04:50:04.466Z,121.82
2018-03-07T04:50:38.157Z,119.57
2018-03-07T04:51:11.847Z,119.53
2018-03-07T04:51:45.530Z,119.95
2018-03-07T04:52:19.038Z,121.43
2018-03-07T04:52:52.758Z,118.70
2018-03-07T04:53:26.438Z,121.95
2018-03-07T04:54:00.910Z,122.72
2018-03-07T04:54:34.582Z,119.95
2018-03-07T04:55:08.273Z,119.72
2018-03-07T04:55:41.979Z,121.53
2018-03-07T04:56:15.688Z,119.03
2018-03-07T04:56:49.378Z,119.65
2018-03-07T04:57:23.063Z,122.50
2018-03-07T04:57:56.773Z,122.57
2018-03-07T04:58:31.249Z,115.65
2018-03-07T04:59:04.938Z,121.03
2018-03-07T04:59:38.637Z,124.12
2018-03-07T05:00:12.352Z,122.75
2018-03-07T05:00:46.810Z,121.70
2018-03-07T05:01:20.490Z,119.40
2018-03-07T05:01:54.207Z,121.13
2018-03-07T05:02:27.884Z,117.10
2018-03-07T05:03:01.977Z,115.65
2018-03-07T05:03:35.670Z,114.82
2018-03-07T05:04:09.358Z,114.07
2018-03-07T05:04:43.046Z,116.53
2018-03-07T05:05:16.743Z,115.47
2018-03-07T05:05:50.493Z,116.18
2018-03-07T05:06:24.934Z,119.47
2018-03-07T05:06:58.627Z,112.97
2018-03-07T05:07:32.316Z,112.43
2018-03-07T05:08:06.019Z,116.05
2018-03-07T05:08:39.721Z,116.95
2018-03-07T05:09:13.405Z,120.47
2018-03-07T05:09:47.130Z,112.93
2018-03-07T05:10:21.608Z,111.55
2018-03-07T05:10:55.284Z,118.53
2018-03-07T05:11:28.968Z,115.55
2018-03-07T05:12:02.680Z,112.70
2018-03-07T05:12:36.356Z,111.90
2018-03-07T05:13:10.065Z,114.18
2018-03-07T05:13:43.940Z,111.28
2018-03-07T05:14:17.626Z,108.70
2018-03-07T05:14:51.331Z,111.07
2018-03-07T05:15:25.019Z,106.65
2018-03-07T05:15:58.698Z,110.88
2018-03-07T05:16:32.374Z,112.22
2018-03-07T05:17:06.058Z,108.85
2018-03-07T05:17:39.744Z,110.00
2018-03-07T05:18:13.481Z,112.80
2018-03-07T05:18:47.205Z,110.75
2018-03-07T05:19:21.038Z,108.65
2018-03-07T05:19:54.732Z,109.45
2018-03-07T05:20:28.420Z,108.12
2018-03-07T05:21:02.120Z,107.72
2018-03-07T05:21:35.798Z,112.32
2018-03-07T05:22:09.512Z,110.78
2018-03-07T05:22:43.955Z,107.93
2018-03-07T05:23:18.420Z,110.32
2018-03-07T05:23:52.095Z,110.57
2018-03-07T05:24:25.815Z,108.78
2018-03-07T05:24:59.664Z,106.57
2018-03-07T05:25:33.331Z,110.07
2018-03-07T05:26:07.783Z,109.47
2018-03-07T05:26:41.474Z,109.75
2018-03-07T05:27:15.143Z,109.00
2018-03-07T05:27:48.492Z,109.37
2018-03-07T05:28:23.321Z,109.25
2018-03-07T05:28:57.768Z,104.20
2018-03-07T05:29:31.445Z,109.28
2018-03-07T05:30:04.563Z,112.47
2018-03-07T05:30:38.408Z,107.50
2018-03-07T05:31:12.108Z,104.05
2018-03-07T05:31:45.817Z,105.32
2018-03-07T05:32:19.537Z,108.10
2018-03-07T05:32:53.986Z,111.90
2018-03-07T05:33:27.692Z,103.82
2018-03-07T05:34:01.384Z,105.50
2018-03-07T05:34:35.062Z,108.60
2018-03-07T05:35:08.407Z,105.85
2018-03-07T05:35:42.126Z,105.68
2018-03-07T05:36:15.479Z,107.43
2018-03-07T05:36:49.984Z,103.97
2018-03-07T05:37:23.818Z,103.47
2018-03-07T05:37:57.520Z,106.22
2018-03-07T05:38:31.244Z,105.57
2018-03-07T05:39:05.766Z,106.37
2018-03-07T05:39:40.228Z,107.68
2018-03-07T05:40:13.894Z,101.47
2018-03-07T05:40:47.590Z,105.00
2018-03-07T05:41:21.281Z,106.78
2018-03-07T05:41:54.983Z,103.93
2018-03-07T05:42:28.656Z,104.65
2018-03-07T05:43:02.343Z,104.07
2018-03-07T05:43:36.063Z,105.55
2018-03-07T05:44:09.774Z,102.40
2018-03-07T05:44:43.468Z,103.78
2018-03-07T05:45:17.161Z,102.45
2018-03-07T05:45:50.539Z,102.95
2018-03-07T05:46:24.230Z,103.65
2018-03-07T05:46:57.918Z,103.82
2018-03-07T05:47:31.667Z,104.97
2018-03-07T05:48:05.368Z,99.28
2018-03-07T05:48:39.414Z,103.43
2018-03-07T05:49:13.851Z,103.68
2018-03-07T05:49:47.538Z,104.57
2018-03-07T05:50:21.229Z,100.05
2018-03-07T05:50:54.910Z,103.15
2018-03-07T05:51:28.406Z,98.68
2018-03-07T05:52:02.087Z,99.10
2018-03-07T05:52:35.783Z,101.07
2018-03-07T05:53:09.443Z,99.90
2018-03-07T05:53:43.935Z,99.13
2018-03-07T05:54:17.644Z,101.53
2018-03-07T05:54:52.102Z,98.12
2018-03-07T05:55:25.798Z,98.85
2018-03-07T05:55:59.486Z,100.95
2018-03-07T05:56:33.169Z,99.32
2018-03-07T05:57:06.948Z,100.25
2018-03-07T05:57:40.630Z,101.60
2018-03-07T05:58:14.293Z,96.32
2018-03-07T05:58:48.779Z,96.65
2018-03-07T05:59:22.454Z,101.15
2018-03-07T05:59:56.139Z,103.35
2018-03-07T06:00:29.818Z,101.90
2018-03-07T06:01:03.177Z,99.20
2018-03-07T06:01:36.865Z,98.90
2018-03-07T06:02:10.545Z,100.38
2018-03-07T06:02:44.987Z,100.35
2018-03-07T06:03:18.327Z,94.32
2018-03-07T06:03:52.786Z,99.62
2018-03-07T06:04:26.461Z,96.35
2018-03-07T06:05:00.147Z,92.45
2018-03-07T06:05:33.825Z,95.35
2018-03-07T06:06:07.514Z,94.68
2018-03-07T06:06:41.200Z,94.05
2018-03-07T06:07:14.881Z,93.82
2018-03-07T06:07:48.571Z,93.90
2018-03-07T06:08:23.019Z,95.20
2018-03-07T06:08:56.739Z,93.72
2018-03-07T06:09:31.985Z,98.40
2018-03-07T06:10:06.103Z,91.35
2018-03-07T06:10:39.790Z,93.60
2018-03-07T06:11:13.481Z,90.65
2018-03-07T06:11:47.168Z,94.80
2018-03-07T06:12:21.609Z,98.75
2018-03-07T06:12:55.288Z,93.50
2018-03-07T06:13:28.978Z,92.35
2018-03-07T06:14:02.678Z,91.32
2018-03-07T06:14:36.369Z,91.22
2018-03-07T06:15:10.060Z,90.40
2018-03-07T06:15:43.746Z,90.30
2018-03-07T06:16:17.436Z,91.78
2018-03-07T06:16:51.128Z,87.50
2018-03-07T06:17:24.846Z,88.87
2018-03-07T06:17:58.536Z,90.62
2018-03-07T06:18:32.234Z,92.15
2018-03-07T06:19:05.959Z,88.70
2018-03-07T06:19:39.661Z,92.07
2018-03-07T06:20:13.346Z,86.72
2018-03-07T06:20:47.018Z,92.55
2018-03-07T06:21:21.469Z,89.07
2018-03-07T06:21:55.140Z,87.93
2018-03-07T06:22:28.814Z,96.00
2018-03-07T06:23:03.254Z,87.25
2018-03-07T06:23:36.944Z,91.18
2018-03-07T06:24:10.587Z,88.80
2018-03-07T06:24:45.062Z,89.47
2018-03-07T06:25:18.732Z,88.22
2018-03-07T06:25:52.418Z,89.68
2018-03-07T06:26:26.127Z,88.72
2018-03-07T06:26:59.800Z,86.78
2018-03-07T06:27:33.493Z,85.07
2018-03-07T06:28:07.172Z,90.30
2018-03-07T06:28:40.834Z,90.30
2018-03-07T06:29:14.588Z,87.68
2018-03-07T06:29:48.339Z,86.45
2018-03-07T06:30:22.007Z,90.62
2018-03-07T06:30:55.687Z,90.60
2018-03-07T06:31:29.939Z,88.50
2018-03-07T06:32:03.623Z,89.75
2018-03-07T06:32:37.329Z,84.37
2018-03-07T06:33:11.021Z,87.65
2018-03-07T06:33:44.751Z,91.00
2018-03-07T06:34:19.258Z,87.00
2018-03-07T06:34:53.704Z,89.75
2018-03-07T06:35:27.355Z,87.97
2018-03-07T06:36:01.826Z,86.18
2018-03-07T06:36:35.500Z,87.50
2018-03-07T06:37:09.205Z,88.30
2018-03-07T06:37:42.893Z,86.35
2018-03-07T06:38:16.580Z,88.70
2018-03-07T06:38:50.259Z,86.28
2018-03-07T06:39:23.974Z,87.50
2018-03-07T06:39:57.465Z,86.40
2018-03-07T06:40:31.156Z,87.78
2018-03-07T06:41:04.855Z,86.82
2018-03-07T06:41:40.051Z,86.15
2018-03-07T06:42:13.742Z,84.80
2018-03-07T06:42:47.419Z,86.25
2018-03-07T06:43:21.111Z,87.70
2018-03-07T06:43:54.789Z,83.70
2018-03-07T06:44:28.502Z,86.70
2018-03-07T06:45:02.189Z,86.95
2018-03-07T06:45:35.862Z,83.78
2018-03-07T06:46:09.548Z,82.35
2018-03-07T06:46:43.227Z,85.53
2018-03-07T06:47:16.902Z,87.90
2018-03-07T06:47:51.337Z,86.10
2018-03-07T06:48:25.866Z,85.32
2018-03-07T06:48:59.554Z,83.60
2018-03-07T06:49:33.288Z,84.20
2018-03-07T06:50:07.734Z,85.65
2018-03-07T06:50:41.417Z,81.35
2018-03-07T06:51:15.095Z,84.93
2018-03-07T06:51:48.803Z,83.15
2018-03-07T06:52:22.481Z,84.18
2018-03-07T06:52:56.143Z,89.65
2018-03-07T06:53:30.578Z,82.78
2018-03-07T06:54:04.265Z,85.05
2018-03-07T06:54:37.963Z,83.15
2018-03-07T06:55:11.630Z,84.97
2018-03-07T06:55:46.085Z,84.13
2018-03-07T06:56:19.773Z,85.97
2018-03-07T06:56:53.442Z,85.75
2018-03-07T06:57:26.922Z,87.00
2018-03-07T06:58:00.590Z,86.07
2018-03-07T06:58:35.023Z,89.15
2018-03-07T06:59:08.711Z,86.68
2018-03-07T06:59:42.787Z,87.82
2018-03-07T07:00:17.222Z,88.70
2018-03-07T07:00:50.905Z,89.40
2018-03-07T07:01:24.781Z,85.05
2018-03-07T07:01:58.475Z,88.15
2018-03-07T07:02:32.158Z,85.65
2018-03-07T07:03:06.659Z,86.78
2018-03-07T07:03:41.112Z,87.65
2018-03-07T07:04:14.785Z,89.87
2018-03-07T07:04:48.488Z,83.95
2018-03-07T07:05:22.151Z,85.30
2018-03-07T07:05:55.834Z,83.43
2018-03-07T07:06:30.257Z,86.10
2018-03-07T07:07:03.928Z,84.18
2018-03-07T07:07:38.359Z,81.90
2018-03-07T07:08:12.038Z,82.47
2018-03-07T07:08:45.720Z,85.25
2018-03-07T07:09:19.402Z,84.47
2018-03-07T07:09:53.354Z,82.10
2018-03-07T07:10:27.035Z,82.55
2018-03-07T07:11:00.706Z,84.03